Double Fun — AGZ665N — position and weather

sailwx.info

Track history (hours):
 
Tides and Currents Weather Stations Pressure Air Temp Water Temp Dewpoint Dewpoint Depression Visibility Wind Speed Wind Dir Waves Ship Positions

Double Fun

Last reported at 2017-Oct-29 08:18 UTC. Time now 2017-Dec-18 16:55 UTC.
Position S 32°57' E 151°53'.
Warning: this ship's position is 50 days out of date.

Length 10 m; draft 1 m.

Type: Sailing vessel. MMSI: 503799400.

Date/timePositionNaut miles runAvg speedWind from/ knotsBaromVisibWave heightAir tempDewpointWater temp
2017-Oct-29 08:18S 32°57' E 151°53'2 7.0
2017-Oct-29 07:57S 32°56' E 151°56'3 6.6
2017-Oct-29 07:30S 32°54' E 151°59'3 6.9
2017-Oct-29 07:00S 32°52' E 152°02'3 5.8
2017-Oct-29 06:30S 32°51' E 152°05'3 7.0
2017-Oct-29 06:00S 32°49' E 152°08'3 7.0
2017-Oct-29 05:30S 32°47' E 152°12'4 7.2
2017-Oct-29 05:00S 32°45' E 152°15'4 7.1
2017-Oct-29 04:30S 32°43' E 152°19'4 7.4
2017-Oct-29 04:00S 32°40' E 152°22'  
2017-Oct-24 05:56S 28°34' E 153°39'3 5.8
2017-Oct-24 05:22S 28°31' E 153°39'3 6.5
2017-Oct-24 04:57S 28°28' E 153°38'3 6.9
2017-Oct-24 04:30S 28°25' E 153°38'4 7.1
2017-Oct-24 04:00S 28°21' E 153°37'3 6.6
2017-Oct-24 03:30S 28°18' E 153°37'3 6.1
2017-Oct-24 03:00S 28°15' E 153°36'3 5.8
2017-Oct-24 02:31S 28°12' E 153°35'3 6.2
2017-Oct-24 02:01S 28°10' E 153°34'3 5.4
2017-Oct-24 01:31S 28°07' E 153°33'3 5.3
2017-Oct-24 01:01S 28°05' E 153°31'2 4.9
2017-Oct-24 00:30S 28°03' E 153°30'3 5.0
2017-Oct-23 23:58S 28°00' E 153°29'2 4.9
2017-Oct-23 23:29S 27°58' E 153°27'2 5.0
2017-Oct-23 23:00S 27°56' E 153°26'1 1.8
2017-Oct-23 22:26S 27°57' E 153°25'0 0.0
2017-Oct-23 21:59S 27°57' E 153°25'0 0.0
2017-Oct-23 21:29S 27°57' E 153°25'0 0.0
2017-Oct-23 20:59S 27°57' E 153°25'0 0.0
2017-Oct-23 20:29S 27°57' E 153°25'0 0.1
2017-Oct-23 19:59S 27°57' E 153°26'0 0.0
2017-Oct-23 19:29S 27°57' E 153°26'0 0.0
2017-Oct-23 18:59S 27°57' E 153°26'0 0.0
2017-Oct-23 18:29S 27°57' E 153°26'0 0.0
2017-Oct-23 17:59S 27°57' E 153°26'0 0.0
2017-Oct-23 17:29S 27°57' E 153°26'0 0.0
2017-Oct-23 16:59S 27°57' E 153°26'0 0.0
2017-Oct-23 16:29S 27°57' E 153°26'0 0.0
2017-Oct-23 15:59S 27°57' E 153°26'0 0.0
2017-Oct-23 15:29S 27°57' E 153°26'0 0.0
2017-Oct-23 14:59S 27°57' E 153°26'0 0.0
2017-Oct-23 14:29S 27°57' E 153°26'0 0.0
2017-Oct-23 13:59S 27°57' E 153°26'0 0.1
2017-Oct-23 13:29S 27°57' E 153°25'0 0.0
2017-Oct-23 12:59S 27°57' E 153°25'0 0.0
2017-Oct-23 12:29S 27°57' E 153°25'0 0.0
2017-Oct-23 11:59S 27°57' E 153°25'0 0.1
2017-Oct-23 11:29S 27°57' E 153°26'0 0.1
2017-Oct-23 10:59S 27°57' E 153°25'0 0.0
2017-Oct-23 10:29S 27°57' E 153°25'0 0.0
2017-Oct-23 09:59S 27°57' E 153°25'0 0.0
2017-Oct-23 09:29S 27°57' E 153°25'0 0.0
2017-Oct-23 08:59S 27°57' E 153°25'0 0.0
2017-Oct-23 08:29S 27°57' E 153°25'0 0.0
2017-Oct-23 07:59S 27°57' E 153°25'0 0.0
2017-Oct-23 07:29S 27°57' E 153°25'0 0.0
2017-Oct-23 06:59S 27°57' E 153°25'0 0.0
2017-Oct-23 06:17S 27°57' E 153°25'0 0.0
2017-Oct-23 05:59S 27°57' E 153°25'0 0.1
2017-Oct-23 05:26S 27°57' E 153°26'1 3.3
2017-Oct-23 05:00S 27°56' E 153°25'3 5.8
2017-Oct-23 04:30S 27°53' E 153°25'3 5.3
2017-Oct-23 04:00S 27°50' E 153°24'3 5.1
2017-Oct-23 03:30S 27°48' E 153°25'2 4.6
2017-Oct-23 02:59S 27°47' E 153°22'2 4.8
2017-Oct-23 02:30S 27°45' E 153°21'3 5.4
2017-Oct-23 02:00S 27°42' E 153°22'3 5.1
2017-Oct-23 01:30S 27°39' E 153°22'2 4.7
2017-Oct-23 01:00S 27°38' E 153°20'2 4.9
2017-Oct-23 00:30S 27°35' E 153°20'3 5.6
2017-Oct-23 00:00S 27°33' E 153°20'3 6.6
2017-Oct-22 23:30S 27°30' E 153°18'  
Track history (hours):
 
Tides and Currents Weather Stations Pressure Air Temp Water Temp Dewpoint Dewpoint Depression Visibility Wind Speed Wind Dir Waves Ship Positions

Double Fun

Last reported at 2017-Oct-29 08:18 UTC. Time now 2017-Dec-18 16:55 UTC.
Position S 32°57' E 151°53'.
Warning: this ship's position is 50 days out of date.

Length 10 m; draft 1 m.

Type: Sailing vessel. MMSI: 503799400.

Date/timePositionNaut miles runAvg speedWind from/ knotsBaromVisibWave heightAir tempDewpointWater temp
2017-Oct-29 08:18S 32°57' E 151°53'2 7.0
2017-Oct-29 07:57S 32°56' E 151°56'3 6.6
2017-Oct-29 07:30S 32°54' E 151°59'3 6.9
2017-Oct-29 07:00S 32°52' E 152°02'3 5.8
2017-Oct-29 06:30S 32°51' E 152°05'3 7.0
2017-Oct-29 06:00S 32°49' E 152°08'3 7.0
2017-Oct-29 05:30S 32°47' E 152°12'4 7.2
2017-Oct-29 05:00S 32°45' E 152°15'4 7.1
2017-Oct-29 04:30S 32°43' E 152°19'4 7.4
2017-Oct-29 04:00S 32°40' E 152°22'  
2017-Oct-24 05:56S 28°34' E 153°39'3 5.8
2017-Oct-24 05:22S 28°31' E 153°39'3 6.5
2017-Oct-24 04:57S 28°28' E 153°38'3 6.9
2017-Oct-24 04:30S 28°25' E 153°38'4 7.1
2017-Oct-24 04:00S 28°21' E 153°37'3 6.6
2017-Oct-24 03:30S 28°18' E 153°37'3 6.1
2017-Oct-24 03:00S 28°15' E 153°36'3 5.8
2017-Oct-24 02:31S 28°12' E 153°35'3 6.2
2017-Oct-24 02:01S 28°10' E 153°34'3 5.4
2017-Oct-24 01:31S 28°07' E 153°33'3 5.3
2017-Oct-24 01:01S 28°05' E 153°31'2 4.9
2017-Oct-24 00:30S 28°03' E 153°30'3 5.0
2017-Oct-23 23:58S 28°00' E 153°29'2 4.9
2017-Oct-23 23:29S 27°58' E 153°27'2 5.0
2017-Oct-23 23:00S 27°56' E 153°26'1 1.8
2017-Oct-23 22:26S 27°57' E 153°25'0 0.0
2017-Oct-23 21:59S 27°57' E 153°25'0 0.0
2017-Oct-23 21:29S 27°57' E 153°25'0 0.0
2017-Oct-23 20:59S 27°57' E 153°25'0 0.0
2017-Oct-23 20:29S 27°57' E 153°25'0 0.1
2017-Oct-23 19:59S 27°57' E 153°26'0 0.0
2017-Oct-23 19:29S 27°57' E 153°26'0 0.0
2017-Oct-23 18:59S 27°57' E 153°26'0 0.0
2017-Oct-23 18:29S 27°57' E 153°26'0 0.0
2017-Oct-23 17:59S 27°57' E 153°26'0 0.0
2017-Oct-23 17:29S 27°57' E 153°26'0 0.0
2017-Oct-23 16:59S 27°57' E 153°26'0 0.0
2017-Oct-23 16:29S 27°57' E 153°26'0 0.0
2017-Oct-23 15:59S 27°57' E 153°26'0 0.0
2017-Oct-23 15:29S 27°57' E 153°26'0 0.0
2017-Oct-23 14:59S 27°57' E 153°26'0 0.0
2017-Oct-23 14:29S 27°57' E 153°26'0 0.0
2017-Oct-23 13:59S 27°57' E 153°26'0 0.1
2017-Oct-23 13:29S 27°57' E 153°25'0 0.0
2017-Oct-23 12:59S 27°57' E 153°25'0 0.0
2017-Oct-23 12:29S 27°57' E 153°25'0 0.0
2017-Oct-23 11:59S 27°57' E 153°25'0 0.1
2017-Oct-23 11:29S 27°57' E 153°26'0 0.1
2017-Oct-23 10:59S 27°57' E 153°25'0 0.0
2017-Oct-23 10:29S 27°57' E 153°25'0 0.0
2017-Oct-23 09:59S 27°57' E 153°25'0 0.0
2017-Oct-23 09:29S 27°57' E 153°25'0 0.0
2017-Oct-23 08:59S 27°57' E 153°25'0 0.0
2017-Oct-23 08:29S 27°57' E 153°25'0 0.0
2017-Oct-23 07:59S 27°57' E 153°25'0 0.0
2017-Oct-23 07:29S 27°57' E 153°25'0 0.0
2017-Oct-23 06:59S 27°57' E 153°25'0 0.0
2017-Oct-23 06:17S 27°57' E 153°25'0 0.0
2017-Oct-23 05:59S 27°57' E 153°25'0 0.1
2017-Oct-23 05:26S 27°57' E 153°26'1 3.3
2017-Oct-23 05:00S 27°56' E 153°25'3 5.8
2017-Oct-23 04:30S 27°53' E 153°25'3 5.3
2017-Oct-23 04:00S 27°50' E 153°24'3 5.1
2017-Oct-23 03:30S 27°48' E 153°25'2 4.6
2017-Oct-23 02:59S 27°47' E 153°22'2 4.8
2017-Oct-23 02:30S 27°45' E 153°21'3 5.4
2017-Oct-23 02:00S 27°42' E 153°22'3 5.1
2017-Oct-23 01:30S 27°39' E 153°22'2 4.7
2017-Oct-23 01:00S 27°38' E 153°20'2 4.9
2017-Oct-23 00:30S 27°35' E 153°20'3 5.6
2017-Oct-23 00:00S 27°33' E 153°20'3 6.6
2017-Oct-22 23:30S 27°30' E 153°18'  

Dump ship's entire track history